Aérodrome :
LOGIN :

S'inscrire | Disclaimer

   EN    FR    IT 

 










Légende :    VFR   VFR Marginal   IFR   IFR Intensif   IFR Très Intensif
Visi : 
Plafond : 
>= 8 km
>= 3000ft
5 à 8 km
1000 à 3000 ft
1500m à 5 km
500 à 1000 ft
800 à 1500m
200 à 500 ft
< 800m
< 200 ft
Symboles :   Orages  Brouillard  Fortes neiges  Fortes précipitations  Vent > 20 kt
SIGMETs :   Divers  Orages  Givrage  Turbulence  Onde Orograph.  Cendres Volcan.







- Altitude de l'aérodrome : 313 ft
- Voir les cartes d'approche


LFQA - Reims-Prunay

DERNIER METAR :
  • 210000Z AUTO 33010KT 9999 FEW009 SCT013 OVC019 05/04 Q1007

METARs EXPIRÉS :
  • 202330Z AUTO 32007KT 9999 SCT009 BKN014 OVC033 06/05 Q1005
  • 202300Z AUTO 33006KT 9999 BKN013 OVC028 06/05 Q1005
  • 202230Z AUTO 31005KT 280V340 9999 FEW011 BKN029 BKN043 06/05 Q1004
  • 202200Z AUTO 32006KT 9999 OVC029 06/05 Q1003
  • 202130Z AUTO 31006KT 9999 FEW010 BKN030 OVC042 06/05 Q1002

TAF N/A
Pas de NOTAMs connus pour ce terrain.
1 SIGMET publié pour la FIR Paris (LFFF) :
 
Turbulence forte
LFFF SIGMET 8 VALID 202100/210100 LFPW
LFFF PARIS FIR/UIR SEV TURB FCST NE OF LINE N5100 E00145 - N4815 E00530 FL180/290 MOV NE 20KT NC=



MET'MAP, la Météo Aéronautique d'un coup d'oeil ! - Copyright ORBIFLY Décembre 2007 - Disclaimer

ORBIFLY MET'MAP TEAM :

Programmation & Développement : Alexandra Zaïnal
Conception & Développement : Baudouin d'Aumeries
Co-Programmation & Développement : Marc-Olivier Méhu
Soutien technique & logistique : Manuel Goepfert

Contact : metmap@orbifly.com




SOURCES & CREDITS :

   NOAA